createdAt,value
2023-08-22T00:00:58.931Z,3.7
2023-08-22T00:06:58.452Z,3.6
2023-08-22T00:08:58.330Z,3.7
2023-08-22T00:11:00.249Z,3.2
2023-08-22T00:12:58.145Z,3.4
2023-08-22T00:14:57.987Z,3.5
2023-08-22T00:16:58.529Z,3.9
2023-08-22T00:18:57.721Z,3.8
2023-08-22T00:20:57.657Z,3.7
2023-08-22T00:22:57.505Z,4.0
2023-08-22T00:24:57.405Z,3.9
2023-08-22T00:26:57.624Z,4.3
2023-08-22T00:28:57.184Z,4.1
2023-08-22T00:30:57.232Z,4.0
2023-08-22T00:32:57.056Z,4.3
2023-08-22T00:34:57.020Z,4.2
2023-08-22T00:38:56.750Z,3.8
2023-08-22T00:40:56.597Z,4.1
2023-08-22T00:42:57.041Z,4.0
2023-08-22T00:44:56.313Z,4.1
2023-08-22T00:46:56.464Z,3.9
2023-08-22T00:48:56.525Z,4.1
2023-08-22T00:50:56.491Z,4.3
2023-08-22T00:52:56.512Z,4.2
2023-08-22T00:54:56.072Z,5.0
2023-08-22T00:56:56.985Z,4.1
2023-08-22T00:58:57.675Z,4.6
2023-08-22T01:00:55.342Z,4.8
2023-08-22T01:02:55.418Z,4.5
2023-08-22T01:04:55.152Z,5.3
2023-08-22T01:07:03.945Z,4.9
2023-08-22T01:08:59.993Z,4.8
2023-08-22T01:10:58.782Z,4.7
2023-08-22T01:13:02.710Z,4.9
2023-08-22T01:15:01.109Z,4.6
2023-08-22T01:16:54.654Z,4.8
2023-08-22T01:18:54.747Z,5.4
2023-08-22T01:20:57.614Z,5.2
2023-08-22T01:22:53.936Z,4.8
2023-08-22T01:24:53.730Z,5.2
2023-08-22T01:26:53.685Z,5.4
2023-08-22T01:28:59.536Z,5.1
2023-08-22T01:30:58.081Z,4.8
2023-08-22T01:32:58.511Z,5.0
2023-08-22T01:34:58.075Z,5.2
2023-08-22T01:36:54.872Z,5.5
2023-08-22T01:38:53.750Z,5.0
2023-08-22T01:42:52.595Z,5.4
2023-08-22T01:44:52.469Z,5.2
2023-08-22T01:46:52.130Z,4.8
2023-08-22T01:48:52.095Z,5.1
2023-08-22T01:50:51.853Z,4.8
2023-08-22T01:52:51.681Z,5.2
2023-08-22T01:54:51.580Z,4.9
2023-08-22T01:56:51.472Z,5.1
2023-08-22T01:58:51.727Z,5.0
2023-08-22T02:00:51.217Z,5.7
2023-08-22T02:02:51.095Z,4.8
2023-08-22T02:04:50.774Z,5.1
2023-08-22T02:06:50.765Z,4.7
2023-08-22T02:08:50.457Z,5.1
2023-08-22T02:16:50.355Z,5.3
2023-08-22T02:18:49.789Z,5.1
2023-08-22T02:22:49.512Z,5.7
2023-08-22T02:24:49.342Z,6.1
2023-08-22T02:26:49.171Z,6.6
2023-08-22T02:28:50.561Z,6.1
2023-08-22T02:30:54.748Z,6.2
2023-08-22T02:32:48.966Z,5.9
2023-08-22T02:34:48.729Z,6.4
2023-08-22T02:36:48.505Z,6.1
2023-08-22T02:38:49.247Z,6.2
2023-08-22T02:40:48.241Z,6.4
2023-08-22T02:42:48.369Z,6.7
2023-08-22T02:44:47.913Z,6.8
2023-08-22T02:46:47.662Z,6.0
2023-08-22T02:48:47.714Z,6.2
2023-08-22T02:50:48.921Z,7.1
2023-08-22T02:52:47.226Z,7.2
2023-08-22T02:54:47.182Z,7.5
2023-08-22T02:56:47.185Z,7.2
2023-08-22T02:58:46.988Z,7.3
2023-08-22T03:00:47.103Z,7.7
2023-08-22T03:02:46.785Z,7.6
2023-08-22T03:04:46.648Z,7.2
2023-08-22T03:06:46.634Z,8.0
2023-08-22T03:08:46.217Z,7.6
2023-08-22T03:10:46.086Z,8.1
2023-08-22T03:12:47.192Z,7.1
2023-08-22T03:14:45.760Z,6.7
2023-08-22T03:16:45.851Z,6.5
2023-08-22T03:18:46.685Z,7.2
2023-08-22T03:20:46.253Z,6.2
2023-08-22T03:22:45.128Z,7.0
2023-08-22T03:24:45.156Z,6.3
2023-08-22T03:26:44.889Z,6.4
2023-08-22T03:28:44.710Z,7.2
2023-08-22T03:30:44.583Z,7.6
2023-08-22T03:34:44.314Z,7.4
2023-08-22T03:36:43.998Z,7.2
2023-08-22T03:38:44.185Z,7.6
2023-08-22T03:42:45.205Z,7.3
2023-08-22T03:44:43.608Z,7.6
2023-08-22T03:46:43.504Z,7.0
2023-08-22T03:48:43.339Z,6.7
2023-08-22T03:50:43.634Z,6.3
2023-08-22T03:52:42.879Z,6.1
2023-08-22T03:54:42.838Z,5.6
2023-08-22T03:56:42.644Z,6.0
2023-08-22T03:58:42.694Z,6.3
2023-08-22T04:00:42.505Z,6.2
2023-08-22T04:02:42.610Z,5.5
2023-08-22T04:04:42.151Z,5.4
2023-08-22T04:06:42.102Z,5.2
2023-08-22T04:08:41.664Z,5.4
2023-08-22T04:10:41.641Z,5.2
2023-08-22T04:12:41.566Z,5.5
2023-08-22T04:14:41.355Z,6.4
2023-08-22T04:16:41.156Z,5.7
2023-08-22T04:18:41.001Z,5.6
2023-08-22T04:20:43.146Z,5.3
2023-08-22T04:22:41.344Z,5.7
2023-08-22T04:24:40.509Z,5.4
2023-08-22T04:26:40.629Z,6.1
2023-08-22T04:28:40.309Z,6.5
2023-08-22T04:30:41.449Z,6.4
2023-08-22T04:32:40.053Z,7.0
2023-08-22T04:34:39.818Z,7.2
2023-08-22T04:36:39.866Z,6.8
2023-08-22T04:38:39.571Z,7.1
2023-08-22T04:40:39.286Z,7.3
2023-08-22T04:42:39.365Z,8.2
2023-08-22T04:44:39.300Z,7.7
2023-08-22T04:46:38.837Z,8.4
2023-08-22T04:48:38.778Z,7.6
2023-08-22T04:50:38.722Z,8.0
2023-08-22T04:52:38.430Z,8.2
2023-08-22T04:54:38.426Z,7.7
2023-08-22T04:56:38.109Z,7.9
2023-08-22T04:58:38.098Z,8.5
2023-08-22T05:00:37.971Z,8.9
2023-08-22T05:02:38.009Z,8.6
2023-08-22T05:04:37.532Z,8.4
2023-08-22T05:06:37.559Z,7.9
2023-08-22T05:08:37.564Z,7.7
2023-08-22T05:10:37.131Z,8.7
2023-08-22T05:12:37.128Z,9.0
2023-08-22T05:14:37.133Z,7.9
2023-08-22T05:16:38.493Z,8.4
2023-08-22T05:18:37.199Z,8.3
2023-08-22T05:20:37.487Z,8.5
2023-08-22T05:22:36.176Z,9.2
2023-08-22T05:24:36.367Z,8.6
2023-08-22T05:26:35.932Z,9.9
2023-08-22T05:28:35.851Z,11.1
2023-08-22T05:30:37.036Z,12.1
2023-08-22T05:32:35.454Z,12.6
2023-08-22T05:34:35.288Z,11.9
2023-08-22T05:36:35.011Z,13.8
2023-08-22T05:38:34.978Z,13.5
2023-08-22T05:40:34.760Z,11.9
2023-08-22T05:42:34.731Z,11.6
2023-08-22T05:44:35.848Z,11.5
2023-08-22T05:48:34.370Z,12.4
2023-08-22T05:50:34.117Z,11.8
2023-08-22T05:52:33.821Z,12.6
2023-08-22T05:54:33.982Z,11.7
2023-08-22T05:58:34.390Z,11.8
2023-08-22T06:00:34.470Z,12.4
2023-08-22T06:02:33.289Z,10.7
2023-08-22T06:06:32.870Z,11.2
2023-08-22T06:08:32.788Z,10.8
2023-08-22T06:10:32.569Z,9.1
2023-08-22T06:12:32.465Z,9.0
2023-08-22T06:14:32.368Z,8.9
2023-08-22T06:16:32.275Z,9.1
2023-08-22T06:18:32.228Z,9.0
2023-08-22T06:20:36.895Z,10.3
2023-08-22T06:22:31.750Z,9.2
2023-08-22T06:24:31.708Z,9.7
2023-08-22T06:26:31.860Z,9.5
2023-08-22T06:28:32.496Z,10.1
2023-08-22T06:30:31.382Z,10.5
2023-08-22T06:32:31.250Z,9.6
2023-08-22T06:34:31.228Z,9.7
2023-08-22T06:36:30.973Z,10.0
2023-08-22T06:38:31.056Z,9.7
2023-08-22T06:40:34.256Z,9.5
2023-08-22T06:42:30.609Z,9.8
2023-08-22T06:44:30.632Z,9.1
2023-08-22T06:46:30.539Z,9.4
2023-08-22T06:48:40.918Z,9.1
2023-08-22T06:50:30.339Z,9.7
2023-08-22T06:52:30.237Z,9.9
2023-08-22T06:54:32.466Z,8.9
2023-08-22T06:56:29.992Z,9.0
2023-08-22T06:58:30.010Z,9.1
2023-08-22T07:00:29.786Z,9.4
2023-08-22T07:02:29.673Z,9.8
2023-08-22T07:04:30.061Z,9.6
2023-08-22T07:06:29.402Z,10.1
2023-08-22T07:08:29.344Z,10.4
2023-08-22T07:10:29.230Z,9.4
2023-08-22T07:12:29.241Z,9.5
2023-08-22T07:14:29.201Z,9.8
2023-08-22T07:16:29.104Z,9.2
2023-08-22T07:20:28.881Z,9.4
2023-08-22T07:22:28.897Z,9.1
2023-08-22T07:24:28.763Z,9.2
2023-08-22T07:26:28.945Z,8.8
2023-08-22T07:28:28.704Z,8.9
2023-08-22T07:30:28.562Z,8.3
2023-08-22T07:32:28.729Z,8.9
2023-08-22T07:34:28.424Z,8.8
2023-08-22T07:36:28.297Z,8.3
2023-08-22T07:38:29.343Z,7.7
2023-08-22T07:40:28.363Z,8.3
2023-08-22T07:42:29.695Z,8.5
2023-08-22T07:44:28.229Z,8.4
2023-08-22T07:46:28.146Z,7.9
2023-08-22T07:48:28.472Z,6.4
2023-08-22T07:50:28.279Z,6.9
2023-08-22T07:52:28.117Z,6.7
2023-08-22T07:54:28.958Z,7.4
2023-08-22T07:58:28.919Z,7.5
2023-08-22T08:00:28.126Z,7.3
2023-08-22T08:02:29.101Z,8.1
2023-08-22T08:04:28.038Z,7.2
2023-08-22T08:06:31.572Z,7.1
2023-08-22T08:08:28.214Z,6.8
2023-08-22T08:10:28.000Z,6.7
2023-08-22T08:12:27.980Z,7.5
2023-08-22T08:14:28.143Z,7.4
2023-08-22T08:18:28.149Z,7.1
2023-08-22T08:20:28.260Z,7.5
2023-08-22T08:24:28.218Z,8.0
2023-08-22T08:26:28.106Z,7.5
2023-08-22T08:28:28.120Z,7.8
2023-08-22T08:30:28.089Z,7.9
2023-08-22T08:32:28.090Z,7.1
2023-08-22T08:34:28.299Z,7.7
2023-08-22T08:36:28.141Z,7.2
2023-08-22T08:38:28.179Z,7.3
2023-08-22T08:42:28.480Z,7.5
2023-08-22T08:46:30.181Z,8.0
2023-08-22T08:48:29.623Z,7.7
2023-08-22T08:50:28.278Z,8.5
2023-08-22T08:52:29.525Z,8.1
2023-08-22T08:54:28.958Z,8.7
2023-08-22T08:56:28.416Z,8.2
2023-08-22T08:58:28.303Z,8.5
2023-08-22T09:00:31.215Z,8.6
2023-08-22T09:02:28.288Z,9.7
2023-08-22T09:04:28.421Z,9.2
2023-08-22T09:08:28.550Z,8.9
2023-08-22T09:10:32.307Z,8.8
2023-08-22T09:12:32.406Z,8.7
2023-08-22T09:14:28.452Z,9.3
2023-08-22T09:16:28.875Z,9.2
2023-08-22T09:18:28.553Z,8.9
2023-08-22T09:20:28.962Z,9.8
2023-08-22T09:22:29.378Z,9.2
2023-08-22T09:24:28.675Z,8.4
2023-08-22T09:26:29.757Z,7.5
2023-08-22T09:30:29.519Z,6.7
2023-08-22T09:32:28.653Z,6.4
2023-08-22T09:34:29.274Z,5.9
2023-08-22T09:36:28.501Z,5.7
2023-08-22T09:38:28.489Z,6.2
2023-08-22T09:40:28.555Z,4.9
2023-08-22T09:42:29.695Z,3.9
2023-08-22T09:44:29.005Z,3.5
2023-08-22T09:46:30.755Z,3.3
2023-08-22T09:48:34.014Z,2.7
2023-08-22T09:50:36.160Z,2.8
2023-08-22T09:52:29.585Z,2.5
2023-08-22T09:58:29.810Z,2.4
2023-08-22T10:00:30.813Z,2.2
2023-08-22T10:02:30.635Z,2.1
2023-08-22T10:04:29.141Z,2.0
2023-08-22T10:08:29.749Z,1.9
2023-08-22T10:10:29.558Z,2.2
2023-08-22T10:12:30.582Z,2.1
2023-08-22T10:14:32.181Z,1.9
2023-08-22T10:18:29.513Z,2.0
2023-08-22T10:20:33.195Z,2.5
2023-08-22T10:22:31.750Z,1.7
2023-08-22T10:24:30.513Z,2.0
2023-08-22T10:27:01.059Z,1.7
2023-08-22T10:28:29.343Z,1.6
2023-08-22T10:30:29.367Z,2.0
2023-08-22T10:32:29.754Z,1.8
2023-08-22T10:36:29.475Z,2.0
2023-08-22T10:38:30.102Z,1.9
2023-08-22T10:40:31.998Z,2.1
2023-08-22T10:42:29.722Z,1.9
2023-08-22T10:44:30.305Z,2.1
2023-08-22T10:46:50.844Z,1.7
2023-08-22T10:48:30.164Z,2.0
2023-08-22T10:50:32.158Z,1.8
2023-08-22T10:54:30.710Z,1.9
2023-08-22T10:56:30.122Z,2.5
2023-08-22T10:58:35.900Z,1.9
2023-08-22T11:02:32.662Z,2.1
2023-08-22T11:04:30.838Z,2.2
2023-08-22T11:08:31.471Z,2.0
2023-08-22T11:10:32.640Z,1.7
2023-08-22T11:14:44.962Z,1.8
2023-08-22T11:16:30.956Z,1.6
2023-08-22T11:18:31.971Z,1.4
2023-08-22T11:20:31.399Z,1.6
2023-08-22T11:22:32.150Z,1.3
2023-08-22T11:24:31.546Z,1.4
2023-08-22T11:26:31.520Z,1.5
2023-08-22T11:28:33.228Z,1.3
2023-08-22T11:32:33.484Z,1.4
2023-08-22T11:34:31.828Z,1.6
2023-08-22T11:36:33.695Z,1.5
2023-08-22T11:40:33.004Z,1.4
2023-08-22T11:42:33.775Z,1.7
2023-08-22T11:44:32.474Z,1.6
2023-08-22T11:46:37.710Z,1.5
2023-08-22T11:50:32.890Z,1.6
2023-08-22T11:52:34.040Z,1.4
2023-08-22T11:54:33.178Z,1.5
2023-08-22T11:56:33.526Z,1.4
2023-08-22T11:58:35.730Z,1.2
2023-08-22T12:00:34.648Z,1.5
2023-08-22T12:02:34.166Z,1.3
2023-08-22T12:04:42.346Z,1.7
2023-08-22T12:08:34.197Z,1.6
2023-08-22T12:10:43.108Z,1.8
2023-08-22T12:12:34.424Z,1.6
2023-08-22T12:14:34.659Z,1.4
2023-08-22T12:18:35.082Z,1.8
2023-08-22T12:20:38.410Z,1.7
2023-08-22T12:22:35.159Z,1.5
2023-08-22T12:24:35.190Z,1.6
2023-08-22T12:28:35.394Z,1.7
2023-08-22T12:30:36.930Z,1.6
2023-08-22T12:32:35.826Z,1.5
2023-08-22T12:34:35.770Z,1.8
2023-08-22T12:36:35.967Z,1.4
2023-08-22T12:38:36.019Z,1.6
2023-08-22T12:40:36.214Z,1.3
2023-08-22T12:42:36.268Z,1.5
2023-08-22T12:46:36.671Z,1.7
2023-08-22T12:48:37.085Z,1.4
2023-08-22T12:50:36.748Z,1.6
2023-08-22T12:52:37.569Z,1.7
2023-08-22T12:54:37.076Z,1.9
2023-08-22T12:56:37.173Z,1.8
2023-08-22T12:58:37.288Z,1.7
2023-08-22T13:00:39.495Z,1.5
2023-08-22T13:02:39.574Z,1.4
2023-08-22T13:04:37.854Z,1.6
2023-08-22T13:06:39.919Z,1.8
2023-08-22T13:08:49.188Z,1.2
2023-08-22T13:12:38.317Z,1.3
2023-08-22T13:16:38.708Z,1.2
2023-08-22T13:18:39.015Z,1.3
2023-08-22T13:24:39.099Z,1.1
2023-08-22T13:28:39.269Z,1.5
2023-08-22T13:30:39.714Z,1.0
2023-08-22T13:32:39.687Z,1.1
2023-08-22T13:34:39.686Z,1.2
2023-08-22T13:36:40.156Z,1.0
2023-08-22T13:42:40.362Z,1.3
2023-08-22T13:46:42.178Z,1.0
2023-08-22T13:48:40.762Z,1.1
2023-08-22T13:50:40.919Z,1.4
2023-08-22T13:52:41.007Z,1.2
2023-08-22T13:58:41.423Z,1.0
2023-08-22T14:00:41.537Z,1.3
2023-08-22T14:02:41.710Z,1.1
2023-08-22T14:06:42.051Z,0.9
2023-08-22T14:08:42.203Z,1.0
2023-08-22T14:10:42.220Z,1.1
2023-08-22T14:12:42.750Z,1.2
2023-08-22T14:14:42.602Z,1.4
2023-08-22T14:16:42.656Z,1.1
2023-08-22T14:18:42.774Z,1.2
2023-08-22T14:20:43.104Z,1.3
2023-08-22T14:22:44.301Z,1.4
2023-08-22T14:24:43.434Z,0.9
2023-08-22T14:26:43.493Z,1.1
2023-08-22T14:28:43.574Z,1.0
2023-08-22T14:30:44.008Z,1.9
2023-08-22T14:32:43.959Z,1.3
2023-08-22T14:34:44.198Z,1.0
2023-08-22T14:36:44.280Z,1.1
2023-08-22T14:38:44.366Z,1.0
2023-08-22T14:40:51.892Z,0.9
2023-08-22T14:42:44.751Z,0.7
2023-08-22T14:44:45.080Z,1.0
2023-08-22T14:46:45.183Z,0.8
2023-08-22T14:48:45.278Z,1.0
2023-08-22T14:50:45.801Z,1.4
2023-08-22T14:52:45.597Z,1.1
2023-08-22T14:56:45.820Z,0.9
2023-08-22T14:58:47.255Z,1.0
2023-08-22T15:00:48.222Z,0.9
2023-08-22T15:02:46.398Z,1.1
2023-08-22T15:04:46.497Z,1.0
2023-08-22T15:06:46.639Z,1.1
2023-08-22T15:08:46.925Z,1.3
2023-08-22T15:10:49.948Z,1.2
2023-08-22T15:16:47.439Z,1.3
2023-08-22T15:18:48.687Z,1.1
2023-08-22T15:20:48.384Z,1.3
2023-08-22T15:22:48.082Z,1.1
2023-08-22T15:24:48.934Z,1.0
2023-08-22T15:26:48.742Z,1.2
2023-08-22T15:28:48.462Z,1.3
2023-08-22T15:30:49.234Z,1.1
2023-08-22T15:32:49.373Z,1.2
2023-08-22T15:34:48.974Z,1.1
2023-08-22T15:36:49.338Z,1.0
2023-08-22T15:38:49.072Z,0.9
2023-08-22T15:40:50.793Z,1.1
2023-08-22T15:46:49.950Z,0.9
2023-08-22T15:48:49.903Z,1.1
2023-08-22T15:50:50.010Z,1.2
2023-08-22T15:54:50.546Z,1.1
2023-08-22T15:56:50.778Z,1.0
2023-08-22T16:00:50.891Z,1.1
2023-08-22T16:02:51.247Z,1.0
2023-08-22T16:04:51.174Z,1.3
2023-08-22T16:08:51.586Z,1.1
2023-08-22T16:10:53.675Z,0.9
2023-08-22T16:12:51.846Z,1.1
2023-08-22T16:14:52.061Z,1.2
2023-08-22T16:16:52.238Z,1.0
2023-08-22T16:18:52.327Z,0.9
2023-08-22T16:22:52.635Z,0.8
2023-08-22T16:24:52.910Z,1.0
2023-08-22T16:26:52.871Z,0.9
2023-08-22T16:28:53.285Z,0.8
2023-08-22T16:30:53.278Z,0.9
2023-08-22T16:34:53.366Z,1.1
2023-08-22T16:36:53.524Z,1.4
2023-08-22T16:38:53.539Z,1.0
2023-08-22T16:40:54.648Z,1.1
2023-08-22T16:42:53.774Z,1.0
2023-08-22T16:44:53.980Z,1.1
2023-08-22T16:48:54.826Z,0.9
2023-08-22T16:50:54.518Z,1.2
2023-08-22T16:54:54.521Z,1.1
2023-08-22T16:56:54.650Z,1.0
2023-08-22T16:59:07.403Z,1.2
2023-08-22T17:04:55.064Z,1.3
2023-08-22T17:06:55.093Z,1.1
2023-08-22T17:11:02.532Z,1.3
2023-08-22T17:12:55.450Z,0.9
2023-08-22T17:14:55.564Z,1.1
2023-08-22T17:16:55.906Z,1.3
2023-08-22T17:18:55.713Z,1.0
2023-08-22T17:22:55.904Z,1.1
2023-08-22T17:28:56.528Z,1.2
2023-08-22T17:34:59.197Z,1.3
2023-08-22T17:38:56.605Z,1.1
2023-08-22T17:41:00.651Z,1.2
2023-08-22T17:44:56.919Z,1.3
2023-08-22T17:46:57.848Z,1.2
2023-08-22T17:54:57.474Z,1.1
2023-08-22T17:56:57.411Z,1.3
2023-08-22T17:58:57.598Z,1.1
2023-08-22T18:00:57.705Z,1.2
2023-08-22T18:02:57.836Z,1.4
2023-08-22T18:04:57.796Z,1.2
2023-08-22T18:06:57.869Z,1.1
2023-08-22T18:10:58.111Z,1.3
2023-08-22T18:12:58.027Z,1.2
2023-08-22T18:14:58.122Z,1.5
2023-08-22T18:16:58.389Z,1.2
2023-08-22T18:18:58.424Z,1.3
2023-08-22T18:21:01.443Z,1.5
2023-08-22T18:22:58.424Z,1.1
2023-08-22T18:24:58.734Z,1.2
2023-08-22T18:26:58.749Z,1.3
2023-08-22T18:28:59.165Z,1.2
2023-08-22T18:31:00.541Z,1.0
2023-08-22T18:32:58.954Z,1.4
2023-08-22T18:34:58.797Z,1.3
2023-08-22T18:38:59.045Z,1.1
2023-08-22T18:40:58.952Z,1.3
2023-08-22T18:42:59.433Z,1.2
2023-08-22T18:44:58.996Z,1.5
2023-08-22T18:46:59.227Z,1.4
2023-08-22T18:51:00.082Z,1.5
2023-08-22T18:52:59.245Z,1.4
2023-08-22T18:54:59.537Z,1.5
2023-08-22T18:56:59.700Z,1.2
2023-08-22T18:59:00.515Z,1.7
2023-08-22T19:00:59.542Z,1.4
2023-08-22T19:02:59.352Z,1.5
2023-08-22T19:04:59.357Z,1.4
2023-08-22T19:06:59.625Z,1.3
2023-08-22T19:08:59.349Z,1.4
2023-08-22T19:12:59.484Z,1.6
2023-08-22T19:15:00.444Z,1.2
2023-08-22T19:18:59.480Z,1.5
2023-08-22T19:20:59.948Z,1.4
2023-08-22T19:22:59.289Z,1.6
2023-08-22T19:24:59.390Z,1.2
2023-08-22T19:26:59.336Z,1.5
2023-08-22T19:28:59.236Z,1.4
2023-08-22T19:30:59.562Z,1.5
2023-08-22T19:33:15.772Z,1.4
2023-08-22T19:34:59.264Z,1.7
2023-08-22T19:40:59.324Z,1.5
2023-08-22T19:42:59.098Z,1.7
2023-08-22T19:47:01.266Z,1.6
2023-08-22T19:48:59.456Z,1.7
2023-08-22T19:50:59.182Z,1.5
2023-08-22T19:52:58.896Z,1.8
2023-08-22T19:54:59.010Z,1.5
2023-08-22T19:56:58.874Z,2.0
2023-08-22T19:58:58.825Z,1.5
2023-08-22T20:00:58.806Z,1.8
2023-08-22T20:02:59.813Z,1.7
2023-08-22T20:04:58.972Z,1.8
2023-08-22T20:06:58.859Z,1.9
2023-08-22T20:09:08.332Z,1.8
2023-08-22T20:10:58.521Z,1.7
2023-08-22T20:12:58.573Z,1.5
2023-08-22T20:14:58.359Z,1.7
2023-08-22T20:16:58.412Z,1.9
2023-08-22T20:18:58.449Z,1.7
2023-08-22T20:20:59.527Z,1.6
2023-08-22T20:22:58.428Z,1.8
2023-08-22T20:27:00.837Z,1.7
2023-08-22T20:28:57.926Z,2.0
2023-08-22T20:32:58.006Z,1.9
2023-08-22T20:34:57.754Z,2.1
2023-08-22T20:36:57.843Z,1.9
2023-08-22T20:38:59.418Z,2.0
2023-08-22T20:40:57.797Z,2.1
2023-08-22T20:42:57.649Z,1.8
2023-08-22T20:44:57.622Z,2.3
2023-08-22T20:46:57.437Z,2.1
2023-08-22T20:48:57.478Z,1.8
2023-08-22T20:50:57.450Z,2.0
2023-08-22T20:54:57.271Z,1.9
2023-08-22T20:58:57.246Z,1.8
2023-08-22T21:00:56.965Z,2.0
2023-08-22T21:04:56.995Z,2.1
2023-08-22T21:10:56.599Z,2.2
2023-08-22T21:12:56.963Z,2.0
2023-08-22T21:14:56.410Z,2.1
2023-08-22T21:16:56.783Z,1.7
2023-08-22T21:18:56.380Z,1.9
2023-08-22T21:20:56.316Z,1.7
2023-08-22T21:22:56.084Z,1.6
2023-08-22T21:24:55.980Z,1.8
2023-08-22T21:28:55.928Z,1.9
2023-08-22T21:30:55.796Z,1.8
2023-08-22T21:32:55.800Z,1.7
2023-08-22T21:36:55.768Z,2.0
2023-08-22T21:38:56.665Z,1.8
2023-08-22T21:40:56.505Z,1.7
2023-08-22T21:42:55.282Z,1.6
2023-08-22T21:44:55.384Z,1.8
2023-08-22T21:46:55.214Z,2.0
2023-08-22T21:48:55.111Z,1.8
2023-08-22T21:52:54.940Z,1.7
2023-08-22T21:54:54.896Z,1.9
2023-08-22T21:56:54.763Z,1.8
2023-08-22T21:58:54.666Z,1.7
2023-08-22T22:01:08.361Z,1.9
2023-08-22T22:02:54.616Z,1.8
2023-08-22T22:06:54.490Z,2.1
2023-08-22T22:08:54.290Z,2.2
2023-08-22T22:10:54.341Z,2.3
2023-08-22T22:12:54.640Z,2.1
2023-08-22T22:14:54.135Z,2.2
2023-08-22T22:16:54.262Z,2.6
2023-08-22T22:20:54.812Z,2.4
2023-08-22T22:24:53.812Z,2.1
2023-08-22T22:26:53.585Z,2.2
2023-08-22T22:28:53.473Z,2.1
2023-08-22T22:30:54.125Z,2.3
2023-08-22T22:32:53.538Z,2.2
2023-08-22T22:34:53.277Z,2.4
2023-08-22T22:38:53.237Z,2.2
2023-08-22T22:40:57.440Z,2.5
2023-08-22T22:42:54.690Z,2.3
2023-08-22T22:44:53.107Z,2.1
2023-08-22T22:46:52.809Z,2.5
2023-08-22T22:50:53.047Z,2.8
2023-08-22T22:52:52.647Z,3.0
2023-08-22T22:54:52.556Z,2.7
2023-08-22T22:56:52.452Z,2.4
2023-08-22T23:00:52.374Z,2.5
2023-08-22T23:02:55.396Z,2.7
2023-08-22T23:06:51.879Z,2.8
2023-08-22T23:10:51.787Z,2.6
2023-08-22T23:12:51.624Z,2.7
2023-08-22T23:14:51.586Z,2.5
2023-08-22T23:16:51.511Z,2.6
2023-08-22T23:20:51.267Z,2.5
2023-08-22T23:22:51.346Z,2.8
2023-08-22T23:24:51.209Z,2.5
2023-08-22T23:26:51.012Z,2.9
2023-08-22T23:30:51.013Z,2.6
2023-08-22T23:32:50.769Z,3.0
2023-08-22T23:34:50.514Z,2.9
2023-08-22T23:36:50.363Z,3.3
2023-08-22T23:38:50.298Z,2.9
2023-08-22T23:40:50.118Z,3.2
2023-08-22T23:42:51.238Z,3.0
2023-08-22T23:44:49.833Z,3.1
2023-08-22T23:46:49.694Z,3.4
2023-08-22T23:48:49.604Z,3.3
2023-08-22T23:50:49.369Z,3.4
2023-08-22T23:52:49.832Z,3.3
2023-08-22T23:54:50.123Z,3.2
2023-08-22T23:56:49.384Z,3.4
2023-08-22T23:58:49.020Z,3.3
